sensor_id;sensor_type;location;lat;lon;timestamp;temperature;humidity
13928;DHT22;7036;50.834;4.718;2024-02-26T00:00:36;19.10;52.90
13928;DHT22;7036;50.834;4.718;2024-02-26T00:03:02;19.10;52.80
13928;DHT22;7036;50.834;4.718;2024-02-26T00:05:29;19.10;52.80
13928;DHT22;7036;50.834;4.718;2024-02-26T00:07:57;19.10;52.80
13928;DHT22;7036;50.834;4.718;2024-02-26T00:10:24;19.00;52.80
13928;DHT22;7036;50.834;4.718;2024-02-26T00:12:51;19.00;52.90
13928;DHT22;7036;50.834;4.718;2024-02-26T00:15:19;19.00;53.00
13928;DHT22;7036;50.834;4.718;2024-02-26T00:17:46;19.00;52.90
13928;DHT22;7036;50.834;4.718;2024-02-26T00:20:13;19.00;53.00
13928;DHT22;7036;50.834;4.718;2024-02-26T00:22:41;19.00;53.60
13928;DHT22;7036;50.834;4.718;2024-02-26T00:25:08;19.00;53.00
13928;DHT22;7036;50.834;4.718;2024-02-26T00:27:36;19.00;53.10
13928;DHT22;7036;50.834;4.718;2024-02-26T00:30:04;18.90;52.90
13928;DHT22;7036;50.834;4.718;2024-02-26T00:32:31;18.90;53.70
13928;DHT22;7036;50.834;4.718;2024-02-26T00:34:58;18.90;53.00
13928;DHT22;7036;50.834;4.718;2024-02-26T00:37:26;18.90;53.20
13928;DHT22;7036;50.834;4.718;2024-02-26T00:39:53;18.90;53.00
13928;DHT22;7036;50.834;4.718;2024-02-26T00:42:20;18.90;53.10
13928;DHT22;7036;50.834;4.718;2024-02-26T00:44:48;18.90;53.50
13928;DHT22;7036;50.834;4.718;2024-02-26T00:47:16;18.90;52.80
13928;DHT22;7036;50.834;4.718;2024-02-26T00:49:43;18.90;53.10
13928;DHT22;7036;50.834;4.718;2024-02-26T00:52:11;18.90;53.20
13928;DHT22;7036;50.834;4.718;2024-02-26T00:54:38;18.90;53.10
13928;DHT22;7036;50.834;4.718;2024-02-26T00:57:06;18.90;53.20
13928;DHT22;7036;50.834;4.718;2024-02-26T00:59:34;18.80;53.10
13928;DHT22;7036;50.834;4.718;2024-02-26T01:02:01;18.90;53.30
13928;DHT22;7036;50.834;4.718;2024-02-26T01:04:29;18.90;53.40
13928;DHT22;7036;50.834;4.718;2024-02-26T01:06:57;18.80;53.10
13928;DHT22;7036;50.834;4.718;2024-02-26T01:09:24;18.80;53.20
13928;DHT22;7036;50.834;4.718;2024-02-26T01:11:51;18.80;53.20
13928;DHT22;7036;50.834;4.718;2024-02-26T01:14:18;18.80;53.20
13928;DHT22;7036;50.834;4.718;2024-02-26T01:16:45;18.80;53.20
13928;DHT22;7036;50.834;4.718;2024-02-26T01:19:13;18.80;53.20
13928;DHT22;7036;50.834;4.718;2024-02-26T01:21:40;18.80;53.20
13928;DHT22;7036;50.834;4.718;2024-02-26T01:24:07;18.80;53.20
13928;DHT22;7036;50.834;4.718;2024-02-26T01:26:34;18.80;53.20
13928;DHT22;7036;50.834;4.718;2024-02-26T01:29:01;18.80;53.30
13928;DHT22;7036;50.834;4.718;2024-02-26T01:31:29;18.70;53.30
13928;DHT22;7036;50.834;4.718;2024-02-26T01:33:56;18.70;53.30
13928;DHT22;7036;50.834;4.718;2024-02-26T01:36:23;18.70;53.30
13928;DHT22;7036;50.834;4.718;2024-02-26T01:38:51;18.70;53.40
13928;DHT22;7036;50.834;4.718;2024-02-26T01:41:19;18.70;53.50
13928;DHT22;7036;50.834;4.718;2024-02-26T01:43:46;18.70;53.30
13928;DHT22;7036;50.834;4.718;2024-02-26T01:46:14;18.70;53.30
13928;DHT22;7036;50.834;4.718;2024-02-26T01:48:41;18.70;53.40
13928;DHT22;7036;50.834;4.718;2024-02-26T01:51:10;18.70;53.60
13928;DHT22;7036;50.834;4.718;2024-02-26T01:53:37;18.70;53.30
13928;DHT22;7036;50.834;4.718;2024-02-26T01:56:04;18.70;53.30
13928;DHT22;7036;50.834;4.718;2024-02-26T01:58:31;18.70;53.30
13928;DHT22;7036;50.834;4.718;2024-02-26T02:00:58;18.70;53.30
13928;DHT22;7036;50.834;4.718;2024-02-26T02:03:26;18.60;52.90
13928;DHT22;7036;50.834;4.718;2024-02-26T02:05:54;18.60;53.40
13928;DHT22;7036;50.834;4.718;2024-02-26T02:08:21;18.60;53.40
13928;DHT22;7036;50.834;4.718;2024-02-26T02:10:49;18.60;53.30
13928;DHT22;7036;50.834;4.718;2024-02-26T02:13:15;18.60;53.40
13928;DHT22;7036;50.834;4.718;2024-02-26T02:15:43;18.60;53.40
13928;DHT22;7036;50.834;4.718;2024-02-26T02:18:10;18.60;53.40
13928;DHT22;7036;50.834;4.718;2024-02-26T02:20:37;18.60;54.10
13928;DHT22;7036;50.834;4.718;2024-02-26T02:23:04;18.60;53.50
13928;DHT22;7036;50.834;4.718;2024-02-26T02:25:32;18.60;53.50
13928;DHT22;7036;50.834;4.718;2024-02-26T02:27:59;18.60;53.50
13928;DHT22;7036;50.834;4.718;2024-02-26T02:30:27;18.60;53.50
13928;DHT22;7036;50.834;4.718;2024-02-26T02:32:53;18.60;53.50
13928;DHT22;7036;50.834;4.718;2024-02-26T02:35:22;18.50;53.50
13928;DHT22;7036;50.834;4.718;2024-02-26T02:37:49;18.50;53.50
13928;DHT22;7036;50.834;4.718;2024-02-26T02:40:15;18.50;53.50
13928;DHT22;7036;50.834;4.718;2024-02-26T02:42:43;18.50;53.60
13928;DHT22;7036;50.834;4.718;2024-02-26T02:45:10;18.50;53.60
13928;DHT22;7036;50.834;4.718;2024-02-26T02:47:37;18.50;53.60
13928;DHT22;7036;50.834;4.718;2024-02-26T02:50:05;18.50;53.60
13928;DHT22;7036;50.834;4.718;2024-02-26T02:52:32;18.50;53.60
13928;DHT22;7036;50.834;4.718;2024-02-26T02:55:00;18.50;54.20
13928;DHT22;7036;50.834;4.718;2024-02-26T02:57:27;18.50;53.60
13928;DHT22;7036;50.834;4.718;2024-02-26T02:59:54;18.50;53.60
13928;DHT22;7036;50.834;4.718;2024-02-26T03:02:21;18.50;53.70
13928;DHT22;7036;50.834;4.718;2024-02-26T03:04:49;18.50;53.60
13928;DHT22;7036;50.834;4.718;2024-02-26T03:07:16;18.40;53.60
13928;DHT22;7036;50.834;4.718;2024-02-26T03:09:44;18.40;53.80
13928;DHT22;7036;50.834;4.718;2024-02-26T03:12:11;18.40;53.60
13928;DHT22;7036;50.834;4.718;2024-02-26T03:14:39;18.40;53.70
13928;DHT22;7036;50.834;4.718;2024-02-26T03:17:07;18.40;53.80
13928;DHT22;7036;50.834;4.718;2024-02-26T03:19:34;18.40;53.60
13928;DHT22;7036;50.834;4.718;2024-02-26T03:22:02;18.40;53.70
13928;DHT22;7036;50.834;4.718;2024-02-26T03:24:30;18.40;54.10
13928;DHT22;7036;50.834;4.718;2024-02-26T03:26:57;18.40;53.80
13928;DHT22;7036;50.834;4.718;2024-02-26T03:29:24;18.40;53.20
13928;DHT22;7036;50.834;4.718;2024-02-26T03:31:51;18.30;53.80
13928;DHT22;7036;50.834;4.718;2024-02-26T03:34:19;18.40;53.90
13928;DHT22;7036;50.834;4.718;2024-02-26T03:36:46;18.30;53.70
13928;DHT22;7036;50.834;4.718;2024-02-26T03:39:14;18.30;54.40
13928;DHT22;7036;50.834;4.718;2024-02-26T03:41:42;18.30;54.40
13928;DHT22;7036;50.834;4.718;2024-02-26T03:44:10;18.30;53.30
13928;DHT22;7036;50.834;4.718;2024-02-26T03:46:37;18.30;53.80
13928;DHT22;7036;50.834;4.718;2024-02-26T03:49:05;18.30;53.90
13928;DHT22;7036;50.834;4.718;2024-02-26T03:51:32;18.30;53.80
13928;DHT22;7036;50.834;4.718;2024-02-26T03:54:00;18.30;53.90
13928;DHT22;7036;50.834;4.718;2024-02-26T03:56:27;18.30;53.80
13928;DHT22;7036;50.834;4.718;2024-02-26T03:58:54;18.30;53.90
13928;DHT22;7036;50.834;4.718;2024-02-26T04:01:21;18.30;53.90
13928;DHT22;7036;50.834;4.718;2024-02-26T04:03:49;18.30;54.00
13928;DHT22;7036;50.834;4.718;2024-02-26T04:06:17;18.30;53.90
13928;DHT22;7036;50.834;4.718;2024-02-26T04:08:47;18.20;53.80
13928;DHT22;7036;50.834;4.718;2024-02-26T04:11:14;18.20;53.90
13928;DHT22;7036;50.834;4.718;2024-02-26T04:13:41;18.30;53.90
13928;DHT22;7036;50.834;4.718;2024-02-26T04:16:08;18.30;53.90
13928;DHT22;7036;50.834;4.718;2024-02-26T04:18:36;18.20;53.80
13928;DHT22;7036;50.834;4.718;2024-02-26T04:21:03;18.20;53.80
13928;DHT22;7036;50.834;4.718;2024-02-26T04:23:30;18.20;53.90
13928;DHT22;7036;50.834;4.718;2024-02-26T04:25:58;18.20;53.90
13928;DHT22;7036;50.834;4.718;2024-02-26T04:28:25;18.20;53.90
13928;DHT22;7036;50.834;4.718;2024-02-26T04:30:53;18.20;54.10
13928;DHT22;7036;50.834;4.718;2024-02-26T04:33:20;18.20;53.90
13928;DHT22;7036;50.834;4.718;2024-02-26T04:35:47;18.20;53.90
13928;DHT22;7036;50.834;4.718;2024-02-26T04:38:15;18.20;53.90
13928;DHT22;7036;50.834;4.718;2024-02-26T04:40:42;18.10;54.00
13928;DHT22;7036;50.834;4.718;2024-02-26T04:43:09;18.10;54.00
13928;DHT22;7036;50.834;4.718;2024-02-26T04:45:36;18.10;54.00
13928;DHT22;7036;50.834;4.718;2024-02-26T04:48:03;18.10;54.00
13928;DHT22;7036;50.834;4.718;2024-02-26T04:50:30;18.10;54.00
13928;DHT22;7036;50.834;4.718;2024-02-26T04:52:58;18.10;54.00
13928;DHT22;7036;50.834;4.718;2024-02-26T04:55:25;18.10;54.00
13928;DHT22;7036;50.834;4.718;2024-02-26T04:57:52;18.10;54.00
13928;DHT22;7036;50.834;4.718;2024-02-26T05:00:19;18.10;54.10
13928;DHT22;7036;50.834;4.718;2024-02-26T05:02:46;18.10;54.10
13928;DHT22;7036;50.834;4.718;2024-02-26T05:05:14;18.10;54.20
13928;DHT22;7036;50.834;4.718;2024-02-26T05:07:42;18.10;54.10
13928;DHT22;7036;50.834;4.718;2024-02-26T05:10:09;18.10;54.10
13928;DHT22;7036;50.834;4.718;2024-02-26T05:12:36;18.10;54.10
13928;DHT22;7036;50.834;4.718;2024-02-26T05:15:03;18.10;54.10
13928;DHT22;7036;50.834;4.718;2024-02-26T05:17:31;18.10;54.10
13928;DHT22;7036;50.834;4.718;2024-02-26T05:19:58;18.10;54.10
13928;DHT22;7036;50.834;4.718;2024-02-26T05:22:25;18.10;54.10
13928;DHT22;7036;50.834;4.718;2024-02-26T05:24:52;18.10;54.10
13928;DHT22;7036;50.834;4.718;2024-02-26T05:27:21;18.00;54.20
13928;DHT22;7036;50.834;4.718;2024-02-26T05:29:47;18.00;54.10
13928;DHT22;7036;50.834;4.718;2024-02-26T05:32:15;18.00;54.80
13928;DHT22;7036;50.834;4.718;2024-02-26T05:34:42;18.00;54.10
13928;DHT22;7036;50.834;4.718;2024-02-26T05:37:10;18.00;53.90
13928;DHT22;7036;50.834;4.718;2024-02-26T05:39:38;18.00;54.20
13928;DHT22;7036;50.834;4.718;2024-02-26T05:42:06;18.00;54.20
13928;DHT22;7036;50.834;4.718;2024-02-26T05:44:33;18.00;54.20
13928;DHT22;7036;50.834;4.718;2024-02-26T05:47:01;18.00;54.20
13928;DHT22;7036;50.834;4.718;2024-02-26T05:49:29;18.00;54.60
13928;DHT22;7036;50.834;4.718;2024-02-26T05:51:56;18.00;54.10
13928;DHT22;7036;50.834;4.718;2024-02-26T05:54:23;18.00;54.10
13928;DHT22;7036;50.834;4.718;2024-02-26T05:56:51;18.00;53.70
13928;DHT22;7036;50.834;4.718;2024-02-26T05:59:18;18.00;54.10
13928;DHT22;7036;50.834;4.718;2024-02-26T06:01:45;18.00;54.10
13928;DHT22;7036;50.834;4.718;2024-02-26T06:04:13;17.90;54.20
13928;DHT22;7036;50.834;4.718;2024-02-26T06:06:40;17.90;54.10
13928;DHT22;7036;50.834;4.718;2024-02-26T06:09:08;17.90;54.20
13928;DHT22;7036;50.834;4.718;2024-02-26T06:11:36;17.90;54.20
13928;DHT22;7036;50.834;4.718;2024-02-26T06:14:04;17.90;54.20
13928;DHT22;7036;50.834;4.718;2024-02-26T06:16:31;17.90;54.20
13928;DHT22;7036;50.834;4.718;2024-02-26T06:18:59;17.90;54.10
13928;DHT22;7036;50.834;4.718;2024-02-26T06:21:26;18.00;54.20
13928;DHT22;7036;50.834;4.718;2024-02-26T06:23:53;18.00;54.20
13928;DHT22;7036;50.834;4.718;2024-02-26T06:26:21;18.00;54.20
13928;DHT22;7036;50.834;4.718;2024-02-26T06:28:48;18.00;54.00
13928;DHT22;7036;50.834;4.718;2024-02-26T06:31:16;18.10;54.00
13928;DHT22;7036;50.834;4.718;2024-02-26T06:33:43;18.10;54.00
13928;DHT22;7036;50.834;4.718;2024-02-26T06:36:11;18.10;54.10
13928;DHT22;7036;50.834;4.718;2024-02-26T06:38:38;18.10;53.90
13928;DHT22;7036;50.834;4.718;2024-02-26T06:41:06;18.10;54.10
13928;DHT22;7036;50.834;4.718;2024-02-26T06:43:34;18.10;53.90
13928;DHT22;7036;50.834;4.718;2024-02-26T06:46:01;18.10;53.90
13928;DHT22;7036;50.834;4.718;2024-02-26T06:48:29;18.20;54.10
13928;DHT22;7036;50.834;4.718;2024-02-26T06:50:56;18.10;53.80
13928;DHT22;7036;50.834;4.718;2024-02-26T06:53:24;18.20;54.10
13928;DHT22;7036;50.834;4.718;2024-02-26T06:55:52;18.10;54.00
13928;DHT22;7036;50.834;4.718;2024-02-26T06:58:19;18.20;53.90
13928;DHT22;7036;50.834;4.718;2024-02-26T07:00:47;18.20;54.10
13928;DHT22;7036;50.834;4.718;2024-02-26T07:03:15;18.20;54.10
13928;DHT22;7036;50.834;4.718;2024-02-26T07:05:43;18.20;54.10
13928;DHT22;7036;50.834;4.718;2024-02-26T07:08:11;18.20;54.00
13928;DHT22;7036;50.834;4.718;2024-02-26T07:10:39;18.20;54.00
13928;DHT22;7036;50.834;4.718;2024-02-26T07:13:07;18.20;53.90
13928;DHT22;7036;50.834;4.718;2024-02-26T07:15:35;18.20;54.10
13928;DHT22;7036;50.834;4.718;2024-02-26T07:18:03;18.20;54.10
13928;DHT22;7036;50.834;4.718;2024-02-26T07:20:30;18.20;54.10
13928;DHT22;7036;50.834;4.718;2024-02-26T07:22:57;18.20;54.00
13928;DHT22;7036;50.834;4.718;2024-02-26T07:25:25;18.20;54.30
13928;DHT22;7036;50.834;4.718;2024-02-26T07:27:53;18.20;54.40
13928;DHT22;7036;50.834;4.718;2024-02-26T07:30:20;18.20;54.30
13928;DHT22;7036;50.834;4.718;2024-02-26T07:32:48;18.20;54.40
13928;DHT22;7036;50.834;4.718;2024-02-26T07:35:16;18.20;54.40
13928;DHT22;7036;50.834;4.718;2024-02-26T07:37:44;18.20;54.50
13928;DHT22;7036;50.834;4.718;2024-02-26T07:40:12;18.20;54.50
13928;DHT22;7036;50.834;4.718;2024-02-26T07:42:40;18.20;54.50
13928;DHT22;7036;50.834;4.718;2024-02-26T07:45:08;18.20;54.40
13928;DHT22;7036;50.834;4.718;2024-02-26T07:47:35;18.10;54.40
13928;DHT22;7036;50.834;4.718;2024-02-26T07:50:02;18.10;54.40
13928;DHT22;7036;50.834;4.718;2024-02-26T07:52:30;18.10;54.50
13928;DHT22;7036;50.834;4.718;2024-02-26T07:54:57;18.10;54.40
13928;DHT22;7036;50.834;4.718;2024-02-26T07:57:24;18.20;54.60
13928;DHT22;7036;50.834;4.718;2024-02-26T07:59:52;18.10;54.70
13928;DHT22;7036;50.834;4.718;2024-02-26T08:02:20;18.10;54.60
13928;DHT22;7036;50.834;4.718;2024-02-26T08:04:47;18.10;53.80
13928;DHT22;7036;50.834;4.718;2024-02-26T08:07:14;18.10;54.60
13928;DHT22;7036;50.834;4.718;2024-02-26T08:09:41;18.10;54.70
13928;DHT22;7036;50.834;4.718;2024-02-26T08:12:08;18.10;54.80
13928;DHT22;7036;50.834;4.718;2024-02-26T08:14:36;18.10;55.00
13928;DHT22;7036;50.834;4.718;2024-02-26T08:17:03;18.10;54.90
13928;DHT22;7036;50.834;4.718;2024-02-26T08:19:30;18.10;54.90
13928;DHT22;7036;50.834;4.718;2024-02-26T08:21:57;18.10;54.90
13928;DHT22;7036;50.834;4.718;2024-02-26T08:24:25;18.10;54.90
13928;DHT22;7036;50.834;4.718;2024-02-26T08:26:53;18.10;54.90
13928;DHT22;7036;50.834;4.718;2024-02-26T08:29:21;18.10;54.90
13928;DHT22;7036;50.834;4.718;2024-02-26T08:31:49;18.10;55.00
13928;DHT22;7036;50.834;4.718;2024-02-26T08:34:17;18.00;55.00
13928;DHT22;7036;50.834;4.718;2024-02-26T08:36:45;18.00;55.00
13928;DHT22;7036;50.834;4.718;2024-02-26T08:39:13;18.00;54.90
13928;DHT22;7036;50.834;4.718;2024-02-26T08:41:41;18.00;54.90
13928;DHT22;7036;50.834;4.718;2024-02-26T08:44:08;18.00;54.80
13928;DHT22;7036;50.834;4.718;2024-02-26T08:46:35;18.00;54.10
13928;DHT22;7036;50.834;4.718;2024-02-26T08:49:03;18.00;54.70
13928;DHT22;7036;50.834;4.718;2024-02-26T08:51:30;18.00;54.80
13928;DHT22;7036;50.834;4.718;2024-02-26T08:53:58;18.00;54.80
13928;DHT22;7036;50.834;4.718;2024-02-26T08:56:26;18.00;54.80
13928;DHT22;7036;50.834;4.718;2024-02-26T08:58:54;18.00;54.70
13928;DHT22;7036;50.834;4.718;2024-02-26T09:01:21;18.00;54.70
13928;DHT22;7036;50.834;4.718;2024-02-26T09:03:48;18.00;54.70
13928;DHT22;7036;50.834;4.718;2024-02-26T09:06:16;18.00;54.70
13928;DHT22;7036;50.834;4.718;2024-02-26T09:08:44;18.00;54.70
13928;DHT22;7036;50.834;4.718;2024-02-26T09:11:12;18.00;54.70
13928;DHT22;7036;50.834;4.718;2024-02-26T09:13:40;18.00;54.70
13928;DHT22;7036;50.834;4.718;2024-02-26T09:16:08;18.00;54.70
13928;DHT22;7036;50.834;4.718;2024-02-26T09:18:36;18.00;54.70
13928;DHT22;7036;50.834;4.718;2024-02-26T09:21:04;18.00;54.70
13928;DHT22;7036;50.834;4.718;2024-02-26T09:23:31;18.00;54.60
13928;DHT22;7036;50.834;4.718;2024-02-26T09:25:58;18.00;54.60
13928;DHT22;7036;50.834;4.718;2024-02-26T09:28:25;18.00;54.60
13928;DHT22;7036;50.834;4.718;2024-02-26T09:30:52;18.00;54.60
13928;DHT22;7036;50.834;4.718;2024-02-26T09:33:20;18.00;54.70
13928;DHT22;7036;50.834;4.718;2024-02-26T09:35:48;18.00;54.70
13928;DHT22;7036;50.834;4.718;2024-02-26T09:38:16;18.00;54.70
13928;DHT22;7036;50.834;4.718;2024-02-26T09:40:44;18.00;54.70
13928;DHT22;7036;50.834;4.718;2024-02-26T09:43:13;18.00;54.30
13928;DHT22;7036;50.834;4.718;2024-02-26T09:45:39;18.00;54.60
13928;DHT22;7036;50.834;4.718;2024-02-26T09:48:06;18.00;54.00
13928;DHT22;7036;50.834;4.718;2024-02-26T09:50:34;18.00;54.80
13928;DHT22;7036;50.834;4.718;2024-02-26T09:53:02;18.00;54.70
13928;DHT22;7036;50.834;4.718;2024-02-26T09:55:30;17.90;54.70
13928;DHT22;7036;50.834;4.718;2024-02-26T09:57:58;17.90;54.70
13928;DHT22;7036;50.834;4.718;2024-02-26T10:00:25;17.90;54.60
13928;DHT22;7036;50.834;4.718;2024-02-26T10:02:53;17.90;54.80
13928;DHT22;7036;50.834;4.718;2024-02-26T10:05:20;17.90;54.70
13928;DHT22;7036;50.834;4.718;2024-02-26T10:07:47;17.90;54.00
13928;DHT22;7036;50.834;4.718;2024-02-26T10:10:14;17.90;54.70
13928;DHT22;7036;50.834;4.718;2024-02-26T10:12:42;17.90;54.70
13928;DHT22;7036;50.834;4.718;2024-02-26T10:15:10;17.90;54.70
13928;DHT22;7036;50.834;4.718;2024-02-26T10:17:38;17.90;54.10
13928;DHT22;7036;50.834;4.718;2024-02-26T10:20:15;17.90;54.70
13928;DHT22;7036;50.834;4.718;2024-02-26T10:22:42;17.90;54.70
13928;DHT22;7036;50.834;4.718;2024-02-26T10:25:09;17.90;54.70
13928;DHT22;7036;50.834;4.718;2024-02-26T10:27:36;17.90;54.60
13928;DHT22;7036;50.834;4.718;2024-02-26T10:30:03;17.90;54.60
13928;DHT22;7036;50.834;4.718;2024-02-26T10:32:30;17.90;54.60
13928;DHT22;7036;50.834;4.718;2024-02-26T10:34:58;17.90;54.70
13928;DHT22;7036;50.834;4.718;2024-02-26T10:37:26;17.90;54.70
13928;DHT22;7036;50.834;4.718;2024-02-26T10:39:54;17.90;54.70
13928;DHT22;7036;50.834;4.718;2024-02-26T10:42:22;17.90;54.80
13928;DHT22;7036;50.834;4.718;2024-02-26T10:44:50;17.90;54.70
13928;DHT22;7036;50.834;4.718;2024-02-26T10:47:17;17.90;54.60
13928;DHT22;7036;50.834;4.718;2024-02-26T10:49:48;17.90;55.30
13928;DHT22;7036;50.834;4.718;2024-02-26T10:52:16;17.90;54.70
13928;DHT22;7036;50.834;4.718;2024-02-26T10:54:42;17.90;54.60
13928;DHT22;7036;50.834;4.718;2024-02-26T10:57:10;17.90;54.20
13928;DHT22;7036;50.834;4.718;2024-02-26T10:59:38;17.90;54.60
13928;DHT22;7036;50.834;4.718;2024-02-26T11:02:06;17.90;54.70
13928;DHT22;7036;50.834;4.718;2024-02-26T11:04:33;17.90;54.60
13928;DHT22;7036;50.834;4.718;2024-02-26T11:07:01;17.90;55.00
13928;DHT22;7036;50.834;4.718;2024-02-26T11:09:29;17.90;54.10
13928;DHT22;7036;50.834;4.718;2024-02-26T11:11:57;17.90;54.70
13928;DHT22;7036;50.834;4.718;2024-02-26T11:14:25;17.90;54.50
13928;DHT22;7036;50.834;4.718;2024-02-26T11:16:54;17.90;54.70
13928;DHT22;7036;50.834;4.718;2024-02-26T11:19:21;17.90;54.70
13928;DHT22;7036;50.834;4.718;2024-02-26T11:21:48;17.90;54.60
13928;DHT22;7036;50.834;4.718;2024-02-26T11:24:16;17.90;54.80
13928;DHT22;7036;50.834;4.718;2024-02-26T11:26:54;17.90;54.80
13928;DHT22;7036;50.834;4.718;2024-02-26T11:29:20;17.90;54.70
13928;DHT22;7036;50.834;4.718;2024-02-26T11:31:48;17.90;54.80
13928;DHT22;7036;50.834;4.718;2024-02-26T11:34:16;17.90;54.80
13928;DHT22;7036;50.834;4.718;2024-02-26T11:36:44;17.90;54.80
13928;DHT22;7036;50.834;4.718;2024-02-26T11:39:14;17.90;54.70
13928;DHT22;7036;50.834;4.718;2024-02-26T11:41:40;17.90;54.60
13928;DHT22;7036;50.834;4.718;2024-02-26T11:44:08;17.90;54.70
13928;DHT22;7036;50.834;4.718;2024-02-26T11:46:42;17.90;54.80
13928;DHT22;7036;50.834;4.718;2024-02-26T11:51:52;17.90;54.80
13928;DHT22;7036;50.834;4.718;2024-02-26T11:54:40;17.90;54.70
13928;DHT22;7036;50.834;4.718;2024-02-26T12:00:10;17.90;54.60
13928;DHT22;7036;50.834;4.718;2024-02-26T12:05:13;17.90;54.70
13928;DHT22;7036;50.834;4.718;2024-02-26T12:07:49;17.90;54.80
13928;DHT22;7036;50.834;4.718;2024-02-26T12:10:25;17.90;54.90
13928;DHT22;7036;50.834;4.718;2024-02-26T12:12:55;17.90;54.90
13928;DHT22;7036;50.834;4.718;2024-02-26T12:15:22;18.00;55.00
13928;DHT22;7036;50.834;4.718;2024-02-26T12:17:49;18.10;55.20
13928;DHT22;7036;50.834;4.718;2024-02-26T12:20:16;18.10;55.10
13928;DHT22;7036;50.834;4.718;2024-02-26T12:22:44;18.20;55.20
13928;DHT22;7036;50.834;4.718;2024-02-26T12:25:12;18.20;55.00
13928;DHT22;7036;50.834;4.718;2024-02-26T12:27:39;18.20;54.90
13928;DHT22;7036;50.834;4.718;2024-02-26T12:30:06;18.30;54.30
13928;DHT22;7036;50.834;4.718;2024-02-26T12:32:34;18.30;54.80
13928;DHT22;7036;50.834;4.718;2024-02-26T12:35:02;18.40;54.80
13928;DHT22;7036;50.834;4.718;2024-02-26T12:37:29;18.40;54.70
13928;DHT22;7036;50.834;4.718;2024-02-26T12:39:57;18.30;54.50
13928;DHT22;7036;50.834;4.718;2024-02-26T12:42:25;18.40;54.00
13928;DHT22;7036;50.834;4.718;2024-02-26T12:44:53;18.40;54.10
13928;DHT22;7036;50.834;4.718;2024-02-26T12:47:20;18.40;54.30
13928;DHT22;7036;50.834;4.718;2024-02-26T12:49:48;18.50;54.60
13928;DHT22;7036;50.834;4.718;2024-02-26T12:52:16;18.50;54.50
13928;DHT22;7036;50.834;4.718;2024-02-26T12:54:44;18.50;54.40
13928;DHT22;7036;50.834;4.718;2024-02-26T12:57:11;18.50;54.40
13928;DHT22;7036;50.834;4.718;2024-02-26T12:59:39;18.50;54.20
13928;DHT22;7036;50.834;4.718;2024-02-26T13:02:06;18.50;54.20
13928;DHT22;7036;50.834;4.718;2024-02-26T13:04:34;18.60;54.60
13928;DHT22;7036;50.834;4.718;2024-02-26T13:07:05;18.60;54.70
13928;DHT22;7036;50.834;4.718;2024-02-26T13:09:31;18.60;54.60
13928;DHT22;7036;50.834;4.718;2024-02-26T13:11:56;18.60;54.60
13928;DHT22;7036;50.834;4.718;2024-02-26T13:14:24;18.70;54.80
13928;DHT22;7036;50.834;4.718;2024-02-26T13:16:56;18.70;54.20
13928;DHT22;7036;50.834;4.718;2024-02-26T13:19:23;18.70;54.80
13928;DHT22;7036;50.834;4.718;2024-02-26T13:21:49;18.70;54.70
13928;DHT22;7036;50.834;4.718;2024-02-26T13:24:19;18.70;54.80
13928;DHT22;7036;50.834;4.718;2024-02-26T13:26:45;18.70;54.60
13928;DHT22;7036;50.834;4.718;2024-02-26T13:29:19;18.80;54.80
13928;DHT22;7036;50.834;4.718;2024-02-26T13:31:45;18.80;54.60
13928;DHT22;7036;50.834;4.718;2024-02-26T13:34:28;18.80;54.60
13928;DHT22;7036;50.834;4.718;2024-02-26T13:36:54;18.80;54.60
13928;DHT22;7036;50.834;4.718;2024-02-26T13:39:23;18.80;54.70
13928;DHT22;7036;50.834;4.718;2024-02-26T13:41:51;18.80;55.00
13928;DHT22;7036;50.834;4.718;2024-02-26T13:44:19;18.90;54.80
13928;DHT22;7036;50.834;4.718;2024-02-26T13:46:46;18.80;54.50
13928;DHT22;7036;50.834;4.718;2024-02-26T13:49:13;18.90;54.00
13928;DHT22;7036;50.834;4.718;2024-02-26T13:51:41;18.90;54.80
13928;DHT22;7036;50.834;4.718;2024-02-26T13:54:09;18.90;54.80
13928;DHT22;7036;50.834;4.718;2024-02-26T13:56:37;18.90;54.80
13928;DHT22;7036;50.834;4.718;2024-02-26T13:59:05;18.90;54.80
13928;DHT22;7036;50.834;4.718;2024-02-26T14:01:33;18.90;54.90
13928;DHT22;7036;50.834;4.718;2024-02-26T14:04:00;18.90;54.80
13928;DHT22;7036;50.834;4.718;2024-02-26T14:06:28;18.90;55.20
13928;DHT22;7036;50.834;4.718;2024-02-26T14:08:56;19.00;55.30
13928;DHT22;7036;50.834;4.718;2024-02-26T14:11:24;19.00;55.40
13928;DHT22;7036;50.834;4.718;2024-02-26T14:13:51;19.00;55.20
13928;DHT22;7036;50.834;4.718;2024-02-26T14:16:19;19.00;55.30
13928;DHT22;7036;50.834;4.718;2024-02-26T14:18:46;19.00;55.20
13928;DHT22;7036;50.834;4.718;2024-02-26T14:21:14;19.00;55.20
13928;DHT22;7036;50.834;4.718;2024-02-26T14:23:42;19.00;55.20
13928;DHT22;7036;50.834;4.718;2024-02-26T14:26:10;19.00;55.20
13928;DHT22;7036;50.834;4.718;2024-02-26T14:28:38;19.00;55.20
13928;DHT22;7036;50.834;4.718;2024-02-26T14:31:06;19.00;55.20
13928;DHT22;7036;50.834;4.718;2024-02-26T14:33:33;19.00;55.10
13928;DHT22;7036;50.834;4.718;2024-02-26T14:36:01;19.10;55.20
13928;DHT22;7036;50.834;4.718;2024-02-26T14:38:29;19.10;55.20
13928;DHT22;7036;50.834;4.718;2024-02-26T14:40:57;19.10;55.20
13928;DHT22;7036;50.834;4.718;2024-02-26T14:43:25;19.10;55.20
13928;DHT22;7036;50.834;4.718;2024-02-26T14:45:53;19.10;55.20
13928;DHT22;7036;50.834;4.718;2024-02-26T14:48:20;19.10;55.00
13928;DHT22;7036;50.834;4.718;2024-02-26T14:50:49;19.20;55.30
13928;DHT22;7036;50.834;4.718;2024-02-26T14:53:16;19.20;55.20
13928;DHT22;7036;50.834;4.718;2024-02-26T14:55:43;19.20;55.80
13928;DHT22;7036;50.834;4.718;2024-02-26T14:58:11;19.20;55.80
13928;DHT22;7036;50.834;4.718;2024-02-26T15:00:39;19.30;55.90
13928;DHT22;7036;50.834;4.718;2024-02-26T15:03:08;19.30;55.90
13928;DHT22;7036;50.834;4.718;2024-02-26T15:05:34;19.30;55.80
13928;DHT22;7036;50.834;4.718;2024-02-26T15:08:03;19.20;55.80
13928;DHT22;7036;50.834;4.718;2024-02-26T15:10:31;19.20;55.80
13928;DHT22;7036;50.834;4.718;2024-02-26T15:12:57;19.20;55.70
13928;DHT22;7036;50.834;4.718;2024-02-26T15:15:25;19.20;55.80
13928;DHT22;7036;50.834;4.718;2024-02-26T15:17:52;19.20;55.60
13928;DHT22;7036;50.834;4.718;2024-02-26T15:20:20;19.20;55.80
13928;DHT22;7036;50.834;4.718;2024-02-26T15:22:48;19.20;55.80
13928;DHT22;7036;50.834;4.718;2024-02-26T15:25:16;19.20;55.80
13928;DHT22;7036;50.834;4.718;2024-02-26T15:27:44;19.20;55.80
13928;DHT22;7036;50.834;4.718;2024-02-26T15:30:12;19.20;55.80
13928;DHT22;7036;50.834;4.718;2024-02-26T15:32:40;19.20;55.80
13928;DHT22;7036;50.834;4.718;2024-02-26T15:35:06;19.20;55.70
13928;DHT22;7036;50.834;4.718;2024-02-26T15:37:34;19.20;55.70
13928;DHT22;7036;50.834;4.718;2024-02-26T15:40:02;19.20;55.80
13928;DHT22;7036;50.834;4.718;2024-02-26T15:42:30;19.20;55.80
13928;DHT22;7036;50.834;4.718;2024-02-26T15:44:58;19.20;55.80
13928;DHT22;7036;50.834;4.718;2024-02-26T15:47:25;19.20;55.70
13928;DHT22;7036;50.834;4.718;2024-02-26T15:49:53;19.20;55.80
13928;DHT22;7036;50.834;4.718;2024-02-26T15:52:21;19.20;55.80
13928;DHT22;7036;50.834;4.718;2024-02-26T15:54:49;19.20;55.80